Time;durP1;ratioP1;P1;durP2;ratioP2;P2;SDS_P1;SDS_P2;PMS_P1;PMS_P2;Temp;Humidity;BMP_temperature;BMP_pressure;BME280_temperature;BME280_humidity;BME280_pressure;Samples;Min_cycle;Max_cycle;Signal;HPM_P1;HPM_P2
2022/04/01 00:00:57;;;;;;;16.23;6.45;;;1.60;99.90;;;;;;5061611;28;20025;-62
2022/04/01 00:03:23;;;;;;;8.13;3.78;;;1.70;99.90;;;;;;5059636;28;20029;-61
2022/04/01 00:05:49;;;;;;;12.23;5.13;;;1.80;99.90;;;;;;5055115;28;20732;-62
2022/04/01 00:08:15;;;;;;;5.60;3.05;;;1.70;99.90;;;;;;5059068;28;20107;-61
2022/04/01 00:10:40;;;;;;;9.75;4.07;;;1.70;99.90;;;;;;5061032;28;20118;-61
2022/04/01 00:13:07;;;;;;;6.13;3.15;;;1.70;99.90;;;;;;5056332;28;20494;-61
2022/04/01 00:15:33;;;;;;;13.75;4.30;;;1.70;99.90;;;;;;5058984;28;20029;-62
2022/04/01 00:18:00;;;;;;;8.48;3.78;;;1.70;99.90;;;;;;5055305;28;20032;-63
2022/04/01 00:20:27;;;;;;;14.25;5.13;;;1.70;99.90;;;;;;5054726;28;20021;-62
2022/04/01 00:22:53;;;;;;;7.05;3.67;;;1.50;99.90;;;;;;5060730;28;20018;-62
2022/04/01 00:25:19;;;;;;;6.68;2.33;;;1.60;99.90;;;;;;5060077;28;20033;-62
2022/04/01 00:27:45;;;;;;;6.65;3.65;;;1.70;99.90;;;;;;5055537;28;20025;-62
2022/04/01 00:30:11;;;;;;;11.23;4.47;;;1.70;99.90;;;;;;5057211;28;20036;-62
2022/04/01 00:32:38;;;;;;;9.40;3.58;;;1.70;99.90;;;;;;5057670;28;20032;-61
2022/04/01 00:35:05;;;;;;;6.22;3.22;;;1.70;99.90;;;;;;5059249;28;20021;-61
2022/04/01 00:37:30;;;;;;;8.60;3.47;;;1.50;99.90;;;;;;5034778;28;20033;-62
2022/04/01 00:39:56;;;;;;;3.60;2.13;;;1.60;99.90;;;;;;5061315;28;20059;-62
2022/04/01 00:42:23;;;;;;;17.27;8.52;;;1.60;99.90;;;;;;5072384;28;20511;-61
2022/04/01 00:44:48;;;;;;;10.90;4.97;;;1.40;99.90;;;;;;5082275;28;20024;-61
2022/04/01 00:47:16;;;;;;;10.13;4.72;;;1.50;99.90;;;;;;5076178;28;20141;-61
2022/04/01 00:49:48;;;;;;;10.43;5.13;;;1.40;99.90;;;;;;5080031;28;20020;-62
2022/04/01 00:52:17;;;;;;;9.35;4.10;;;1.40;99.90;;;;;;5078782;28;20031;-62
2022/04/01 00:54:43;;;;;;;10.23;4.35;;;1.50;99.90;;;;;;5077717;28;20028;-62
2022/04/01 00:57:13;;;;;;;15.82;7.00;;;1.60;99.90;;;;;;5084343;28;20109;-62
2022/04/01 00:59:39;;;;;;;13.40;4.07;;;1.40;99.90;;;;;;5081838;28;20052;-61
2022/04/01 01:02:06;;;;;;;17.33;6.38;;;1.50;99.90;;;;;;5081977;28;20717;-62
2022/04/01 01:04:31;;;;;;;7.65;2.60;;;1.50;99.90;;;;;;5084238;28;20028;-61
2022/04/01 01:07:03;;;;;;;10.00;4.22;;;1.60;99.90;;;;;;5071770;28;20051;-62
2022/04/01 01:09:29;;;;;;;14.40;6.28;;;1.60;99.90;;;;;;5077722;28;20039;-63
2022/04/01 01:11:55;;;;;;;13.40;6.38;;;1.50;99.90;;;;;;5081606;28;20020;-62
2022/04/01 01:14:33;;;;;;;17.30;7.55;;;1.40;99.90;;;;;;5078261;28;20845;-62
2022/04/01 01:17:00;;;;;;;5.65;2.42;;;1.40;99.90;;;;;;5072762;28;20545;-63
2022/04/01 01:19:26;;;;;;;12.60;5.70;;;1.40;99.90;;;;;;5081099;28;20040;-62
2022/04/01 01:21:54;;;;;;;8.80;2.65;;;1.40;99.90;;;;;;5077384;28;20127;-62
2022/04/01 01:24:37;;;;;;;11.43;4.10;;;1.50;99.90;;;;;;5075279;28;20108;-62
2022/04/01 01:27:06;;;;;;;10.88;4.63;;;1.50;99.90;;;;;;5080154;28;20021;-61
2022/04/01 01:29:32;;;;;;;9.20;3.58;;;1.40;99.90;;;;;;5074859;28;20033;-62
2022/04/01 01:32:04;;;;;;;10.88;4.53;;;1.40;99.90;;;;;;5073739;28;20058;-62
2022/04/01 01:34:32;;;;;;;13.25;4.88;;;1.50;99.90;;;;;;5078278;28;20023;-62
2022/04/01 01:36:59;;;;;;;6.47;2.95;;;1.40;99.90;;;;;;5081136;28;20031;-62
2022/04/01 01:39:25;;;;;;;8.05;3.78;;;1.30;99.90;;;;;;5058589;28;20045;-62
2022/04/01 01:41:53;;;;;;;6.43;2.85;;;1.30;99.90;;;;;;5062533;28;20446;-62
2022/04/01 01:44:19;;;;;;;4.47;2.17;;;1.30;99.90;;;;;;5062006;28;20552;-61
2022/04/01 01:46:45;;;;;;;9.02;3.92;;;1.30;99.90;;;;;;5058261;28;20060;-61
2022/04/01 01:49:11;;;;;;;15.13;5.60;;;1.30;99.90;;;;;;5063167;28;20452;-61
2022/04/01 01:57:06;;;;;;;3.97;2.15;;;1.30;99.90;;;;;;5060843;28;20082;-62
2022/04/01 01:59:32;;;;;;;11.55;4.75;;;1.30;99.90;;;;;;5041058;28;20036;-62
2022/04/01 02:01:58;;;;;;;5.93;3.05;;;1.20;99.90;;;;;;5059909;28;20020;-62
2022/04/01 02:04:24;;;;;;;8.63;3.42;;;1.20;99.90;;;;;;5053153;28;20094;-61
2022/04/01 02:06:50;;;;;;;11.38;4.40;;;1.30;99.90;;;;;;5054438;28;20779;-62
2022/04/01 02:09:16;;;;;;;4.90;2.55;;;1.20;99.90;;;;;;5056594;28;20524;-62
2022/04/01 02:11:43;;;;;;;10.75;3.65;;;1.30;99.90;;;;;;5059793;28;20078;-61
2022/04/01 02:14:09;;;;;;;5.07;2.33;;;1.20;99.90;;;;;;5057730;28;20036;-61
2022/04/01 02:16:35;;;;;;;6.78;2.47;;;1.20;99.90;;;;;;5044153;28;20025;-62
2022/04/01 02:19:00;;;;;;;12.70;4.20;;;1.30;99.90;;;;;;5054467;28;20147;-62
2022/04/01 02:21:27;;;;;;;12.20;3.58;;;1.10;99.90;;;;;;5060414;28;20527;-62
2022/04/01 02:23:52;;;;;;;12.10;4.70;;;1.20;99.90;;;;;;5059436;28;20062;-61
2022/04/01 02:26:18;;;;;;;5.00;2.20;;;1.10;99.90;;;;;;5061251;28;20188;-60
2022/04/01 02:28:44;;;;;;;5.20;2.22;;;1.10;99.90;;;;;;5060182;28;20029;-61
2022/04/01 02:31:17;;;;;;;7.78;2.65;;;1.10;99.90;;;;;;5058547;28;20086;-62
2022/04/01 02:33:44;;;;;;;9.13;3.80;;;1.10;99.90;;;;;;5038409;28;20425;-61
2022/04/01 02:36:10;;;;;;;3.60;1.55;;;1.00;99.90;;;;;;5056732;28;20100;-61
2022/04/01 02:38:41;;;;;;;9.20;3.20;;;1.00;99.90;;;;;;5057035;28;20135;-61
2022/04/01 02:41:08;;;;;;;4.60;2.20;;;1.10;99.90;;;;;;5055796;28;20063;-61
2022/04/01 02:43:34;;;;;;;10.27;4.32;;;1.10;99.90;;;;;;5054323;28;20032;-61
2022/04/01 02:46:01;;;;;;;8.57;3.75;;;1.10;99.90;;;;;;5058648;28;20024;-62
2022/04/01 02:48:27;;;;;;;6.07;2.85;;;1.00;99.90;;;;;;5056801;28;20042;-61
2022/04/01 02:50:53;;;;;;;4.05;2.13;;;1.00;99.90;;;;;;5056251;28;20028;-62
2022/04/01 02:53:19;;;;;;;8.85;3.33;;;1.20;99.90;;;;;;5050532;28;20028;-62
2022/04/01 02:55:45;;;;;;;2.30;1.63;;;0.90;99.90;;;;;;5057225;28;20033;-61
2022/04/01 02:58:11;;;;;;;3.38;1.83;;;0.90;99.90;;;;;;5058788;28;20544;-61
2022/04/01 03:00:38;;;;;;;3.42;1.70;;;1.00;99.90;;;;;;5056644;28;20040;-62
2022/04/01 03:03:06;;;;;;;12.85;3.70;;;1.00;99.90;;;;;;5063673;28;20067;-62
2022/04/01 03:05:35;;;;;;;5.45;2.35;;;1.00;99.90;;;;;;5059428;28;20515;-61
2022/04/01 03:08:04;;;;;;;12.20;4.65;;;0.90;99.90;;;;;;5052290;28;20091;-62
2022/04/01 03:10:39;;;;;;;9.93;4.15;;;1.00;99.90;;;;;;5057439;28;20144;-62
2022/04/01 03:13:09;;;;;;;5.57;2.10;;;0.90;99.90;;;;;;5060124;28;20037;-61
2022/04/01 03:15:37;;;;;;;5.95;2.65;;;1.00;99.90;;;;;;5060098;28;20036;-62
2022/04/01 03:18:03;;;;;;;9.73;3.17;;;1.00;99.90;;;;;;5050775;28;20521;-61
2022/04/01 03:20:35;;;;;;;11.65;3.45;;;1.10;99.90;;;;;;5051947;28;20476;-61
2022/04/01 03:23:02;;;;;;;1.58;0.95;;;1.10;99.90;;;;;;5051954;28;20068;-61
2022/04/01 03:25:32;;;;;;;6.88;2.47;;;1.00;99.90;;;;;;5049914;28;20033;-61
2022/04/01 03:27:59;;;;;;;9.48;3.35;;;1.00;99.90;;;;;;5053211;28;20036;-61
2022/04/01 03:30:25;;;;;;;7.95;3.67;;;0.80;99.90;;;;;;5061584;28;20052;-61
2022/04/01 03:32:50;;;;;;;8.32;3.35;;;0.80;99.90;;;;;;5056688;28;20070;-62
2022/04/01 03:35:17;;;;;;;6.68;2.63;;;0.90;99.90;;;;;;5050926;28;20051;-62
2022/04/01 03:37:45;;;;;;;5.38;2.08;;;0.80;99.90;;;;;;5051366;28;20033;-61
2022/04/01 03:40:14;;;;;;;9.75;4.28;;;0.90;99.90;;;;;;5049375;28;21778;-61
2022/04/01 03:42:45;;;;;;;4.10;1.87;;;0.80;99.90;;;;;;5030356;28;20552;-61
2022/04/01 03:45:12;;;;;;;7.50;3.50;;;0.90;99.90;;;;;;5053610;28;20040;-61
2022/04/01 03:47:49;;;;;;;3.35;1.77;;;0.90;99.90;;;;;;5050697;28;20399;-61
2022/04/01 03:50:17;;;;;;;8.70;3.40;;;1.00;99.90;;;;;;5029971;28;20025;-61
2022/04/01 03:52:46;;;;;;;7.53;3.65;;;0.90;99.90;;;;;;5053970;28;20082;-61
2022/04/01 03:55:13;;;;;;;7.85;3.15;;;0.90;99.90;;;;;;5055586;28;20531;-61
2022/04/01 03:57:40;;;;;;;10.93;3.63;;;1.00;99.90;;;;;;5039946;28;20048;-61
2022/04/01 04:00:12;;;;;;;8.55;3.35;;;1.00;99.90;;;;;;5055852;28;20500;-62
2022/04/01 04:02:42;;;;;;;7.85;3.20;;;1.00;99.90;;;;;;5062645;28;20038;-62
2022/04/01 04:05:09;;;;;;;10.03;3.83;;;0.80;99.90;;;;;;5040583;28;20024;-61
2022/04/01 04:07:36;;;;;;;7.47;2.58;;;0.90;99.90;;;;;;5040101;28;20357;-62
2022/04/01 04:10:04;;;;;;;2.92;1.35;;;0.90;99.90;;;;;;5062537;28;20925;-62
2022/04/01 04:12:31;;;;;;;9.32;4.38;;;0.90;99.90;;;;;;5057094;28;20029;-62
2022/04/01 04:14:57;;;;;;;9.25;4.07;;;0.80;99.90;;;;;;5062182;28;20098;-62
2022/04/01 04:17:47;;;;;;;7.60;3.17;;;0.90;99.90;;;;;;5056803;28;20025;-61
2022/04/01 04:20:23;;;;;;;2.38;1.10;;;0.90;99.90;;;;;;5058650;28;20087;-62
2022/04/01 04:23:10;;;;;;;11.85;3.20;;;0.90;99.90;;;;;;5061048;28;20488;-62
2022/04/01 04:25:38;;;;;;;8.90;4.28;;;0.90;99.90;;;;;;5063833;28;20035;-62
2022/04/01 04:28:19;;;;;;;6.47;2.47;;;0.90;99.90;;;;;;5057364;28;20126;-62
2022/04/01 04:30:53;;;;;;;3.97;2.08;;;0.90;99.90;;;;;;5057211;28;20035;-62
2022/04/01 04:33:23;;;;;;;10.25;3.70;;;0.90;99.90;;;;;;5059673;28;20029;-62
2022/04/01 04:35:49;;;;;;;6.47;2.72;;;0.90;99.90;;;;;;5060982;28;20033;-62
2022/04/01 04:38:16;;;;;;;5.97;2.53;;;0.90;99.90;;;;;;5056040;28;20041;-62
2022/04/01 04:40:42;;;;;;;10.88;3.95;;;0.80;99.90;;;;;;5043960;28;20041;-62
2022/04/01 04:43:10;;;;;;;7.05;3.20;;;0.80;99.90;;;;;;5059945;28;20124;-62
2022/04/01 04:45:36;;;;;;;7.60;3.05;;;0.90;99.90;;;;;;5057835;28;20093;-61
2022/04/01 04:48:03;;;;;;;2.97;1.75;;;0.90;99.90;;;;;;5044165;28;20152;-62
2022/04/01 04:50:29;;;;;;;5.07;2.17;;;0.80;99.90;;;;;;5065012;28;20028;-62
2022/04/01 04:52:56;;;;;;;8.25;2.67;;;0.80;99.90;;;;;;5037235;28;20033;-62
2022/04/01 04:55:24;;;;;;;1.17;1.02;;;0.90;99.90;;;;;;5055518;28;20082;-62
2022/04/01 04:57:52;;;;;;;5.20;2.08;;;0.80;99.90;;;;;;5059888;28;20072;-62
2022/04/01 05:00:19;;;;;;;9.63;3.85;;;0.80;99.90;;;;;;5060706;28;20109;-62
2022/04/01 05:03:06;;;;;;;6.05;2.28;;;0.80;99.90;;;;;;5060321;28;20029;-61
2022/04/01 05:05:40;;;;;;;6.72;2.60;;;0.80;99.90;;;;;;5064510;28;20052;-62
2022/04/01 05:08:48;;;;;;;3.22;1.50;;;0.70;99.90;;;;;;5057052;28;20027;-62
2022/04/01 05:11:32;;;;;;;9.88;4.15;;;0.80;99.90;;;;;;5027112;28;20081;-62
2022/04/01 05:14:06;;;;;;;3.10;1.92;;;0.70;99.90;;;;;;5039551;28;20384;-62
2022/04/01 05:16:47;;;;;;;8.55;3.15;;;0.80;99.90;;;;;;5057086;28;20127;-62
2022/04/01 05:19:14;;;;;;;8.77;3.63;;;0.80;99.90;;;;;;5060155;28;20595;-62
2022/04/01 05:22:01;;;;;;;6.78;2.50;;;0.70;99.90;;;;;;5048722;28;20770;-62
2022/04/01 05:24:51;;;;;;;6.65;2.50;;;0.80;99.90;;;;;;5042187;28;20044;-61
2022/04/01 05:27:30;;;;;;;4.90;2.33;;;0.80;99.90;;;;;;5056600;28;20025;-62
2022/04/01 05:30:18;;;;;;;4.25;2.30;;;0.70;99.90;;;;;;5060270;28;20507;-62
2022/04/01 05:33:06;;;;;;;8.77;2.60;;;0.80;99.90;;;;;;5059052;28;20033;-62
2022/04/01 05:35:52;;;;;;;8.48;3.00;;;0.80;99.90;;;;;;5057761;28;20499;-62
2022/04/01 05:38:22;;;;;;;6.65;2.00;;;0.70;99.90;;;;;;5056633;28;20036;-61
2022/04/01 05:40:50;;;;;;;7.03;2.93;;;0.70;99.90;;;;;;5044579;28;20028;-62
2022/04/01 05:43:16;;;;;;;5.40;2.28;;;0.70;99.90;;;;;;5054197;28;20029;-60
2022/04/01 05:45:43;;;;;;;6.30;2.25;;;0.80;99.90;;;;;;5055608;28;20077;-63
2022/04/01 05:48:12;;;;;;;6.88;2.53;;;0.70;99.90;;;;;;5056835;28;20066;-62
2022/04/01 05:50:39;;;;;;;7.03;2.78;;;0.70;99.90;;;;;;5054016;28;20128;-62
2022/04/01 05:53:07;;;;;;;4.55;2.33;;;0.60;99.90;;;;;;5049323;28;20020;-62
2022/04/01 05:55:35;;;;;;;8.18;3.25;;;0.60;99.90;;;;;;5056527;28;20043;-62
2022/04/01 05:58:07;;;;;;;9.20;3.03;;;0.60;99.90;;;;;;5059912;28;20089;-62
2022/04/01 06:00:41;;;;;;;3.65;1.50;;;0.60;99.90;;;;;;5055180;28;20065;-62
2022/04/01 06:03:38;;;;;;;5.72;2.03;;;0.70;99.90;;;;;;5058664;28;20048;-62
2022/04/01 06:06:25;;;;;;;9.35;3.05;;;0.60;99.90;;;;;;5060438;28;20676;-62
2022/04/01 06:09:08;;;;;;;8.18;2.63;;;0.60;99.90;;;;;;5057767;28;20052;-62
2022/04/01 06:11:52;;;;;;;12.18;3.80;;;0.60;99.90;;;;;;5060357;28;20036;-62
2022/04/01 06:14:24;;;;;;;6.97;2.58;;;0.60;99.90;;;;;;5055826;28;20028;-62
2022/04/01 06:17:00;;;;;;;3.25;1.83;;;0.60;99.90;;;;;;5063102;28;20032;-62
2022/04/01 06:19:40;;;;;;;4.20;1.88;;;0.60;99.90;;;;;;5051872;28;20388;-62
2022/04/01 06:22:12;;;;;;;4.53;1.90;;;0.90;99.90;;;;;;5057945;28;20025;-62
2022/04/01 06:24:56;;;;;;;2.45;1.55;;;0.90;99.90;;;;;;5052413;28;20085;-61
2022/04/01 06:27:38;;;;;;;5.75;2.33;;;0.80;99.90;;;;;;5052872;28;20696;-61
2022/04/01 06:30:05;;;;;;;5.15;2.42;;;0.70;99.90;;;;;;5058933;28;20028;-61
2022/04/01 06:32:49;;;;;;;7.85;2.58;;;0.80;99.90;;;;;;5051060;28;20036;-61
2022/04/01 06:35:18;;;;;;;4.43;1.73;;;0.60;99.90;;;;;;5058917;28;20039;-61
2022/04/01 06:37:54;;;;;;;3.20;1.38;;;0.60;99.90;;;;;;5060678;28;20668;-61
2022/04/01 06:40:23;;;;;;;8.98;3.30;;;0.60;99.90;;;;;;5056902;28;20040;-61
2022/04/01 06:42:51;;;;;;;6.93;2.75;;;0.70;99.90;;;;;;5058278;28;20043;-61
2022/04/01 06:45:16;;;;;;;8.07;3.05;;;0.60;99.90;;;;;;5058154;28;20381;-61
2022/04/01 06:47:44;;;;;;;5.35;2.10;;;0.70;99.90;;;;;;5059508;28;20078;-61
2022/04/01 06:50:20;;;;;;;7.47;2.70;;;0.70;99.90;;;;;;5064167;28;20088;-61
2022/04/01 06:52:46;;;;;;;5.10;2.20;;;0.60;99.90;;;;;;5061520;28;20040;-62
2022/04/01 06:55:12;;;;;;;4.15;2.15;;;0.60;99.90;;;;;;5037521;28;20089;-61
2022/04/01 06:57:38;;;;;;;2.55;1.30;;;0.60;99.90;;;;;;5060335;28;20036;-62
2022/04/01 07:00:08;;;;;;;5.30;2.38;;;0.60;99.90;;;;;;5057127;28;20116;-61
2022/04/01 07:02:34;;;;;;;7.85;2.97;;;0.70;99.90;;;;;;5053778;28;20041;-61
2022/04/01 07:05:00;;;;;;;7.00;2.75;;;0.60;99.90;;;;;;5059150;28;20025;-61
2022/04/01 07:07:26;;;;;;;5.75;2.17;;;0.60;99.90;;;;;;5047317;28;20090;-62
2022/04/01 07:09:52;;;;;;;3.78;1.67;;;0.70;99.90;;;;;;5064368;28;20036;-61
2022/04/01 07:12:18;;;;;;;5.63;2.35;;;0.70;99.90;;;;;;5042147;28;20501;-60
2022/04/01 07:14:44;;;;;;;5.13;1.90;;;0.80;99.90;;;;;;5038187;28;20105;-61
2022/04/01 07:17:10;;;;;;;10.32;3.55;;;0.80;99.90;;;;;;5056924;28;20526;-62
2022/04/01 07:19:35;;;;;;;5.78;2.55;;;0.60;99.90;;;;;;5059105;28;20029;-61
2022/04/01 07:22:01;;;;;;;4.82;2.05;;;0.60;99.90;;;;;;5060966;28;20032;-61
2022/04/01 07:24:27;;;;;;;9.10;3.25;;;0.70;99.90;;;;;;5062431;28;20043;-61
2022/04/01 07:26:52;;;;;;;4.63;2.10;;;0.70;99.90;;;;;;5061969;28;20036;-61
2022/04/01 07:29:18;;;;;;;8.80;2.55;;;0.80;99.90;;;;;;5061917;28;20021;-61
2022/04/01 07:34:37;;;;;;;7.65;2.70;;;0.90;99.90;;;;;;5063559;28;20556;-61
2022/04/01 07:37:03;;;;;;;5.50;2.53;;;0.90;99.90;;;;;;5064630;28;20644;-62
2022/04/01 07:39:29;;;;;;;2.25;1.25;;;0.80;99.90;;;;;;5064408;28;20037;-62
2022/04/01 07:41:55;;;;;;;5.20;2.17;;;0.90;99.90;;;;;;5065051;28;20381;-61
2022/04/01 07:44:22;;;;;;;7.50;2.28;;;0.90;99.90;;;;;;5062813;28;20051;-62
2022/04/01 07:46:48;;;;;;;4.22;1.80;;;0.80;99.90;;;;;;5063899;28;20016;-61
2022/04/01 07:49:14;;;;;;;2.40;1.35;;;0.90;99.90;;;;;;5065940;28;20396;-61
2022/04/01 07:51:40;;;;;;;5.30;2.10;;;0.70;99.90;;;;;;5061425;28;20051;-61
2022/04/01 07:54:06;;;;;;;7.32;2.90;;;0.80;99.90;;;;;;5065537;28;20032;-61
2022/04/01 07:56:31;;;;;;;2.75;1.38;;;0.70;99.90;;;;;;5042133;28;20041;-61
2022/04/01 07:59:00;;;;;;;9.93;3.65;;;0.70;99.90;;;;;;5067308;28;20055;-62
2022/04/01 08:01:26;;;;;;;6.03;2.03;;;0.70;99.90;;;;;;5059714;28;20045;-61
2022/04/01 08:03:52;;;;;;;7.65;3.10;;;0.70;99.90;;;;;;5058488;28;20029;-62
2022/04/01 08:06:18;;;;;;;9.52;3.45;;;0.70;99.90;;;;;;5060926;28;20028;-61
2022/04/01 08:08:44;;;;;;;5.95;2.47;;;0.60;99.90;;;;;;5064591;28;20586;-61
2022/04/01 08:11:10;;;;;;;6.80;2.83;;;0.70;99.90;;;;;;5063657;28;20021;-62
2022/04/01 08:13:36;;;;;;;7.55;3.00;;;0.80;99.90;;;;;;5053170;28;20025;-62
2022/04/01 08:16:02;;;;;;;3.20;1.65;;;0.70;99.90;;;;;;5063287;28;20032;-61
2022/04/01 08:18:27;;;;;;;5.15;2.47;;;0.80;99.90;;;;;;5051514;28;20057;-61
2022/04/01 08:20:53;;;;;;;8.38;2.45;;;0.80;99.90;;;;;;5062133;28;20032;-61
2022/04/01 08:23:19;;;;;;;6.00;2.38;;;0.70;99.90;;;;;;5059672;28;20059;-61
2022/04/01 08:25:46;;;;;;;5.70;2.67;;;0.80;99.90;;;;;;5054826;28;20031;-61
2022/04/01 08:28:13;;;;;;;4.32;1.60;;;0.80;99.90;;;;;;5042942;28;20488;-62
2022/04/01 08:30:40;;;;;;;6.45;2.63;;;0.80;99.90;;;;;;5055524;28;20113;-62
2022/04/01 08:33:06;;;;;;;2.45;1.40;;;0.80;99.90;;;;;;5059627;28;20541;-61
2022/04/01 08:35:33;;;;;;;5.95;2.30;;;0.80;99.90;;;;;;5062547;28;20093;-61
2022/04/01 08:37:59;;;;;;;7.15;2.60;;;0.70;99.90;;;;;;5063897;28;20056;-62
2022/04/01 08:40:27;;;;;;;8.18;2.97;;;0.60;99.90;;;;;;5081798;28;20055;-61
2022/04/01 08:42:52;;;;;;;4.03;1.85;;;0.60;99.90;;;;;;5085541;28;20036;-61
2022/04/01 08:45:20;;;;;;;6.65;2.45;;;0.90;99.90;;;;;;5083516;28;20031;-61
2022/04/01 08:47:47;;;;;;;7.35;2.88;;;0.80;99.90;;;;;;5073095;28;20474;-61
2022/04/01 08:50:12;;;;;;;4.90;2.40;;;0.60;99.90;;;;;;5052504;28;20033;-61
2022/04/01 08:52:38;;;;;;;9.20;2.55;;;0.70;99.90;;;;;;5057616;28;20237;-61
2022/04/01 08:55:06;;;;;;;8.05;3.25;;;0.60;99.90;;;;;;5077212;28;20087;-61
2022/04/01 08:57:39;;;;;;;6.30;2.78;;;0.70;99.90;;;;;;5083161;28;20550;-62
2022/04/01 09:00:25;;;;;;;8.20;3.65;;;0.60;99.90;;;;;;5081950;28;20031;-61
2022/04/01 09:03:00;;;;;;;8.52;2.90;;;0.60;99.90;;;;;;5059977;28;20044;-61
2022/04/01 09:05:25;;;;;;;2.45;1.50;;;0.70;99.90;;;;;;5084376;28;20024;-61
2022/04/01 09:08:14;;;;;;;3.38;1.75;;;0.70;99.90;;;;;;5078721;28;20133;-61
2022/04/01 09:10:55;;;;;;;5.68;2.28;;;1.00;99.90;;;;;;5079898;28;20111;-61
2022/04/01 09:13:24;;;;;;;8.77;2.08;;;0.80;99.90;;;;;;5063469;28;20032;-61
2022/04/01 09:15:50;;;;;;;5.53;2.42;;;0.70;99.90;;;;;;5082067;28;20555;-62
2022/04/01 09:18:35;;;;;;;6.95;2.97;;;0.70;99.90;;;;;;5076353;28;20028;-61
2022/04/01 09:21:01;;;;;;;5.55;2.60;;;0.70;99.90;;;;;;5085579;28;20048;-61
2022/04/01 09:23:27;;;;;;;6.78;2.90;;;0.80;99.90;;;;;;5073230;28;20040;-61
2022/04/01 09:25:54;;;;;;;7.63;2.78;;;0.80;99.90;;;;;;5063799;28;20111;-62
2022/04/01 09:28:32;;;;;;;7.13;2.85;;;0.80;99.90;;;;;;5059207;28;20388;-61
2022/04/01 09:31:06;;;;;;;3.80;1.98;;;0.90;99.90;;;;;;5082653;28;20024;-61
2022/04/01 09:33:54;;;;;;;10.75;3.70;;;0.80;99.90;;;;;;5064655;28;20032;-62
2022/04/01 09:36:29;;;;;;;5.05;2.08;;;0.60;99.90;;;;;;5072982;28;20028;-61
2022/04/01 09:39:00;;;;;;;6.80;2.85;;;0.80;99.90;;;;;;5075924;28;20048;-61
2022/04/01 09:41:31;;;;;;;11.27;3.85;;;0.90;99.90;;;;;;5054321;28;20043;-62
2022/04/01 09:44:04;;;;;;;8.40;2.80;;;0.80;99.90;;;;;;5081286;28;20115;-62
2022/04/01 09:46:30;;;;;;;10.27;3.50;;;0.90;99.90;;;;;;5080147;28;20073;-61
2022/04/01 09:48:58;;;;;;;7.38;2.92;;;0.80;99.90;;;;;;5082983;28;20029;-61
2022/04/01 09:51:32;;;;;;;8.23;3.55;;;0.80;99.90;;;;;;5062630;28;20021;-61
2022/04/01 09:54:02;;;;;;;7.22;3.20;;;0.90;99.90;;;;;;5064189;28;20103;-61
2022/04/01 09:56:41;;;;;;;9.95;3.65;;;0.90;99.90;;;;;;5068555;28;20028;-61
2022/04/01 09:59:08;;;;;;;9.65;3.65;;;0.90;99.90;;;;;;5077818;28;20043;-62
2022/04/01 10:01:35;;;;;;;8.32;2.95;;;1.00;99.90;;;;;;5062301;28;20542;-61
2022/04/01 10:04:02;;;;;;;8.15;3.45;;;1.00;99.90;;;;;;5077049;28;20056;-61
2022/04/01 10:06:30;;;;;;;2.58;1.48;;;0.90;99.90;;;;;;5073101;28;20403;-61
2022/04/01 10:08:59;;;;;;;8.73;4.05;;;0.80;99.90;;;;;;5072858;28;20028;-61
2022/04/01 10:11:26;;;;;;;5.80;2.45;;;0.80;99.90;;;;;;5074962;28;20107;-61
2022/04/01 10:13:53;;;;;;;9.48;4.43;;;0.90;99.90;;;;;;5074137;28;20179;-62
2022/04/01 10:16:20;;;;;;;4.57;2.13;;;0.80;99.90;;;;;;5076826;28;20128;-61
2022/04/01 10:18:47;;;;;;;8.25;3.53;;;1.00;99.90;;;;;;5071432;28;20032;-61
2022/04/01 10:21:17;;;;;;;9.70;3.92;;;0.90;99.90;;;;;;5073566;28;20085;-61
2022/04/01 10:23:48;;;;;;;10.33;4.03;;;0.80;99.90;;;;;;5073806;28;20029;-62
2022/04/01 10:26:17;;;;;;;11.98;2.72;;;0.60;99.90;;;;;;5075047;28;20721;-62
2022/04/01 10:28:47;;;;;;;10.27;4.05;;;0.70;99.90;;;;;;5081319;28;20027;-62
2022/04/01 10:31:14;;;;;;;10.65;3.30;;;0.70;99.90;;;;;;5081503;28;20730;-62
2022/04/01 10:33:40;;;;;;;3.95;1.73;;;0.60;99.90;;;;;;5078556;28;20033;-61
2022/04/01 10:36:21;;;;;;;6.10;3.03;;;0.70;99.90;;;;;;5080104;28;20074;-62
2022/04/01 10:38:48;;;;;;;10.48;4.35;;;0.70;99.90;;;;;;5071023;28;20492;-61
2022/04/01 10:41:15;;;;;;;5.90;2.10;;;0.50;99.90;;;;;;5062453;28;20029;-62
2022/04/01 10:43:43;;;;;;;7.95;3.15;;;0.50;99.90;;;;;;5052974;28;20024;-62
2022/04/01 10:46:12;;;;;;;10.02;4.10;;;0.60;99.90;;;;;;5038309;28;20504;-62
2022/04/01 10:51:59;;;;;;;4.78;2.38;;;0.60;99.90;;;;;;5058310;28;20071;-62
2022/04/01 10:54:25;;;;;;;15.13;4.90;;;0.50;99.90;;;;;;5055655;28;20028;-62
2022/04/01 10:56:53;;;;;;;3.97;1.42;;;0.50;99.90;;;;;;5059666;28;20473;-62
2022/04/01 10:59:23;;;;;;;9.70;3.35;;;0.50;99.90;;;;;;5061552;28;20032;-62
2022/04/01 11:01:51;;;;;;;17.38;6.00;;;0.40;99.90;;;;;;5055590;28;20032;-61
2022/04/01 11:04:17;;;;;;;11.65;4.75;;;0.40;99.90;;;;;;5052085;28;20105;-61
2022/04/01 11:07:03;;;;;;;13.20;5.68;;;0.60;99.90;;;;;;5051698;28;20025;-61
2022/04/01 11:09:42;;;;;;;7.57;2.45;;;0.50;99.90;;;;;;5055303;28;20122;-62
2022/04/01 11:12:19;;;;;;;6.10;2.63;;;0.80;99.90;;;;;;5054892;28;20081;-61
2022/04/01 11:17:24;;;;;;;4.88;2.60;;;0.70;99.90;;;;;;5055135;28;20024;-61
2022/04/01 11:20:22;;;;;;;5.07;2.90;;;0.60;99.90;;;;;;5034145;28;20062;-61
2022/04/01 11:22:54;;;;;;;11.23;4.03;;;0.80;99.90;;;;;;5044068;28;20049;-61
2022/04/01 11:25:22;;;;;;;8.20;3.70;;;0.70;99.90;;;;;;5059218;28;20021;-60
2022/04/01 11:27:50;;;;;;;8.70;4.15;;;0.70;99.90;;;;;;5056552;28;20056;-61
2022/04/01 11:30:20;;;;;;;9.43;3.58;;;0.70;99.90;;;;;;5058470;28;20033;-61
2022/04/01 11:32:50;;;;;;;14.82;4.35;;;0.60;99.90;;;;;;5056286;28;20492;-61
2022/04/01 11:35:20;;;;;;;2.25;1.42;;;0.50;99.90;;;;;;5054302;28;20111;-61
2022/04/01 11:37:46;;;;;;;10.40;4.43;;;0.60;99.90;;;;;;5055166;28;20048;-61
2022/04/01 11:40:22;;;;;;;8.98;3.40;;;0.80;99.90;;;;;;5076757;28;20033;-62
2022/04/01 11:43:02;;;;;;;7.65;3.40;;;0.70;99.90;;;;;;5075240;28;20074;-61
2022/04/01 11:45:33;;;;;;;10.35;4.10;;;0.70;99.90;;;;;;5073776;28;20031;-61
2022/04/01 11:48:00;;;;;;;7.85;3.88;;;0.80;99.90;;;;;;5079782;28;20039;-61
2022/04/01 11:50:26;;;;;;;12.70;4.55;;;0.70;99.90;;;;;;5073813;28;20053;-61
2022/04/01 11:52:55;;;;;;;14.30;6.15;;;0.80;99.90;;;;;;5076998;28;20062;-61
2022/04/01 11:55:29;;;;;;;10.77;3.87;;;0.60;99.90;;;;;;5074430;28;20036;-61
2022/04/01 11:57:58;;;;;;;4.38;1.92;;;0.80;99.90;;;;;;5078561;28;20487;-61
2022/04/01 12:00:27;;;;;;;11.18;4.03;;;0.90;99.90;;;;;;5072200;28;20537;-62
2022/04/01 12:02:54;;;;;;;9.43;4.63;;;0.80;99.90;;;;;;5073253;28;20078;-61
2022/04/01 12:05:21;;;;;;;12.65;5.40;;;0.80;99.90;;;;;;5063275;28;20027;-61
2022/04/01 12:10:42;;;;;;;4.22;1.88;;;0.80;99.90;;;;;;5078672;28;20052;-62
2022/04/01 12:13:09;;;;;;;8.75;3.33;;;0.80;99.90;;;;;;5077036;28;20478;-62
2022/04/01 12:15:38;;;;;;;5.70;2.67;;;0.70;99.90;;;;;;5070723;28;20649;-61
2022/04/01 12:18:06;;;;;;;15.57;5.70;;;0.80;99.90;;;;;;5075501;28;20035;-61
2022/04/01 12:20:44;;;;;;;9.65;2.97;;;0.70;99.90;;;;;;5072710;28;20036;-61
2022/04/01 12:23:10;;;;;;;7.28;3.65;;;0.60;99.90;;;;;;5072500;28;20147;-61
2022/04/01 12:25:39;;;;;;;13.05;5.47;;;0.70;99.90;;;;;;5073777;28;20020;-61
2022/04/01 12:28:11;;;;;;;12.45;3.90;;;0.50;99.90;;;;;;5084697;28;20024;-61
2022/04/01 12:30:52;;;;;;;10.80;3.97;;;0.50;99.90;;;;;;5077411;28;20020;-61
2022/04/01 12:33:20;;;;;;;11.23;5.43;;;0.80;99.90;;;;;;5083801;28;20088;-60
2022/04/01 12:35:49;;;;;;;13.20;5.68;;;0.60;99.90;;;;;;5079539;28;20028;-61
2022/04/01 12:38:15;;;;;;;7.55;4.03;;;0.60;99.90;;;;;;5075287;28;20092;-61
2022/04/01 12:40:48;;;;;;;13.45;6.15;;;0.60;99.90;;;;;;5053435;28;20587;-61
2022/04/01 12:43:36;;;;;;;9.98;4.63;;;0.50;99.90;;;;;;5059485;28;20028;-61
2022/04/01 12:46:09;;;;;;;14.45;5.47;;;0.50;99.90;;;;;;5057689;28;20043;-61
2022/04/01 12:48:52;;;;;;;6.18;3.38;;;0.50;99.90;;;;;;5049632;28;20035;-62
2022/04/01 12:51:28;;;;;;;18.25;7.00;;;0.50;99.90;;;;;;5056450;28;20028;-61
2022/04/01 12:54:01;;;;;;;5.80;3.25;;;0.50;99.90;;;;;;5060337;28;20457;-62
2022/04/01 12:56:38;;;;;;;12.30;5.18;;;0.70;99.90;;;;;;5058340;28;20036;-62
2022/04/01 12:59:14;;;;;;;10.85;4.40;;;0.50;99.90;;;;;;5064225;28;20031;-61
2022/04/01 13:02:04;;;;;;;3.38;1.38;;;0.60;99.90;;;;;;5057543;28;20040;-61
2022/04/01 13:04:42;;;;;;;13.93;4.47;;;0.50;99.90;;;;;;5059347;28;20113;-61
2022/04/01 13:07:20;;;;;;;9.93;3.83;;;0.50;99.90;;;;;;5043998;28;20430;-61
2022/04/01 13:09:55;;;;;;;4.53;2.30;;;0.60;99.90;;;;;;5044384;28;20040;-61
2022/04/01 13:12:44;;;;;;;9.95;3.63;;;0.70;99.90;;;;;;5060429;28;20052;-61
2022/04/01 13:15:12;;;;;;;8.87;3.23;;;0.70;99.90;;;;;;5060990;28;20040;-61
2022/04/01 13:17:50;;;;;;;3.95;2.30;;;0.70;99.90;;;;;;5058375;28;20274;-61
2022/04/01 13:20:19;;;;;;;9.77;4.22;;;0.90;99.90;;;;;;5061354;28;20103;-61
2022/04/01 13:22:46;;;;;;;12.52;5.53;;;0.80;99.90;;;;;;5057912;28;20032;-61
2022/04/01 13:25:15;;;;;;;8.15;3.80;;;0.80;99.90;;;;;;5040228;28;20040;-61
2022/04/01 13:27:42;;;;;;;14.00;4.40;;;0.90;99.90;;;;;;5061427;28;20024;-61